sensor_id;sensor_type;location;lat;lon;timestamp;temperature;humidity
20246;DHT22;10281;54.406;18.556;2023-07-30T00:01:23;17.90;99.90
20246;DHT22;10281;54.406;18.556;2023-07-30T00:03:50;17.90;99.90
20246;DHT22;10281;54.406;18.556;2023-07-30T00:06:17;17.80;99.90
20246;DHT22;10281;54.406;18.556;2023-07-30T00:08:43;17.80;99.90
20246;DHT22;10281;54.406;18.556;2023-07-30T00:11:10;17.80;99.90
20246;DHT22;10281;54.406;18.556;2023-07-30T00:13:36;17.80;99.90
20246;DHT22;10281;54.406;18.556;2023-07-30T00:16:03;17.70;99.90
20246;DHT22;10281;54.406;18.556;2023-07-30T00:18:30;17.70;99.90
20246;DHT22;10281;54.406;18.556;2023-07-30T00:20:56;17.70;99.90
20246;DHT22;10281;54.406;18.556;2023-07-30T00:23:23;17.70;99.90
20246;DHT22;10281;54.406;18.556;2023-07-30T00:25:50;17.70;99.90
20246;DHT22;10281;54.406;18.556;2023-07-30T00:28:16;17.70;99.90
20246;DHT22;10281;54.406;18.556;2023-07-30T00:30:43;17.60;99.90
20246;DHT22;10281;54.406;18.556;2023-07-30T00:33:10;17.50;99.90
20246;DHT22;10281;54.406;18.556;2023-07-30T00:35:37;17.50;99.90
20246;DHT22;10281;54.406;18.556;2023-07-30T00:38:04;17.50;99.90
20246;DHT22;10281;54.406;18.556;2023-07-30T00:40:30;17.50;99.90
20246;DHT22;10281;54.406;18.556;2023-07-30T00:42:57;17.50;99.90
20246;DHT22;10281;54.406;18.556;2023-07-30T00:45:24;17.40;99.90
20246;DHT22;10281;54.406;18.556;2023-07-30T00:47:51;17.40;99.90
20246;DHT22;10281;54.406;18.556;2023-07-30T00:50:17;17.40;99.90
20246;DHT22;10281;54.406;18.556;2023-07-30T00:52:44;17.40;99.90
20246;DHT22;10281;54.406;18.556;2023-07-30T00:55:11;17.40;99.90
20246;DHT22;10281;54.406;18.556;2023-07-30T00:57:39;17.40;99.90
20246;DHT22;10281;54.406;18.556;2023-07-30T01:00:06;17.40;99.90
20246;DHT22;10281;54.406;18.556;2023-07-30T01:02:36;17.40;99.90
20246;DHT22;10281;54.406;18.556;2023-07-30T01:05:02;17.40;99.90
20246;DHT22;10281;54.406;18.556;2023-07-30T01:07:31;17.40;99.90
20246;DHT22;10281;54.406;18.556;2023-07-30T01:09:58;17.40;99.90
20246;DHT22;10281;54.406;18.556;2023-07-30T01:12:26;17.30;99.90
20246;DHT22;10281;54.406;18.556;2023-07-30T01:14:56;17.30;99.90
20246;DHT22;10281;54.406;18.556;2023-07-30T01:17:23;17.30;99.90
20246;DHT22;10281;54.406;18.556;2023-07-30T01:19:53;17.30;99.90
20246;DHT22;10281;54.406;18.556;2023-07-30T01:22:21;17.30;99.90
20246;DHT22;10281;54.406;18.556;2023-07-30T01:24:49;17.30;99.90
20246;DHT22;10281;54.406;18.556;2023-07-30T01:27:22;17.30;99.90
20246;DHT22;10281;54.406;18.556;2023-07-30T01:29:52;17.20;99.90
20246;DHT22;10281;54.406;18.556;2023-07-30T01:32:25;17.20;99.90
20246;DHT22;10281;54.406;18.556;2023-07-30T01:34:53;17.20;99.90
20246;DHT22;10281;54.406;18.556;2023-07-30T01:37:21;17.20;99.90
20246;DHT22;10281;54.406;18.556;2023-07-30T01:39:48;17.20;99.90
20246;DHT22;10281;54.406;18.556;2023-07-30T01:42:16;17.20;99.90
20246;DHT22;10281;54.406;18.556;2023-07-30T01:44:42;17.20;99.90
20246;DHT22;10281;54.406;18.556;2023-07-30T01:47:09;17.10;99.90
20246;DHT22;10281;54.406;18.556;2023-07-30T01:49:36;17.10;99.90
20246;DHT22;10281;54.406;18.556;2023-07-30T01:52:03;17.10;99.90
20246;DHT22;10281;54.406;18.556;2023-07-30T01:54:29;17.20;99.90
20246;DHT22;10281;54.406;18.556;2023-07-30T01:56:56;17.20;99.90
20246;DHT22;10281;54.406;18.556;2023-07-30T01:59:23;17.10;99.90
20246;DHT22;10281;54.406;18.556;2023-07-30T02:01:49;17.10;99.90
20246;DHT22;10281;54.406;18.556;2023-07-30T02:04:16;17.10;99.90
20246;DHT22;10281;54.406;18.556;2023-07-30T02:06:44;17.10;99.90
20246;DHT22;10281;54.406;18.556;2023-07-30T02:09:10;17.10;99.90
20246;DHT22;10281;54.406;18.556;2023-07-30T02:11:37;17.10;99.90
20246;DHT22;10281;54.406;18.556;2023-07-30T02:14:03;17.00;99.90
20246;DHT22;10281;54.406;18.556;2023-07-30T02:16:30;17.00;99.90
20246;DHT22;10281;54.406;18.556;2023-07-30T02:18:56;17.00;99.90
20246;DHT22;10281;54.406;18.556;2023-07-30T02:21:23;17.00;99.90
20246;DHT22;10281;54.406;18.556;2023-07-30T02:23:50;16.90;99.90
20246;DHT22;10281;54.406;18.556;2023-07-30T02:26:16;16.90;99.90
20246;DHT22;10281;54.406;18.556;2023-07-30T02:28:43;16.90;99.90
20246;DHT22;10281;54.406;18.556;2023-07-30T02:31:09;16.90;99.90
20246;DHT22;10281;54.406;18.556;2023-07-30T02:33:36;16.90;99.90
20246;DHT22;10281;54.406;18.556;2023-07-30T02:36:03;16.80;99.90
20246;DHT22;10281;54.406;18.556;2023-07-30T02:38:30;16.80;99.90
20246;DHT22;10281;54.406;18.556;2023-07-30T02:40:57;16.80;99.90
20246;DHT22;10281;54.406;18.556;2023-07-30T02:43:23;16.80;99.90
20246;DHT22;10281;54.406;18.556;2023-07-30T02:45:50;16.70;99.90
20246;DHT22;10281;54.406;18.556;2023-07-30T02:48:17;16.70;99.90
20246;DHT22;10281;54.406;18.556;2023-07-30T02:50:43;16.70;99.90
20246;DHT22;10281;54.406;18.556;2023-07-30T02:53:11;16.70;99.90
20246;DHT22;10281;54.406;18.556;2023-07-30T02:55:37;16.70;99.90
20246;DHT22;10281;54.406;18.556;2023-07-30T02:58:04;16.70;99.90
20246;DHT22;10281;54.406;18.556;2023-07-30T03:00:30;16.70;99.90
20246;DHT22;10281;54.406;18.556;2023-07-30T03:02:57;16.70;99.90
20246;DHT22;10281;54.406;18.556;2023-07-30T03:05:24;16.70;99.90
20246;DHT22;10281;54.406;18.556;2023-07-30T03:07:50;16.60;99.90
20246;DHT22;10281;54.406;18.556;2023-07-30T03:10:17;16.60;99.90
20246;DHT22;10281;54.406;18.556;2023-07-30T03:12:43;16.60;99.90
20246;DHT22;10281;54.406;18.556;2023-07-30T03:15:10;16.60;99.90
20246;DHT22;10281;54.406;18.556;2023-07-30T03:17:37;16.60;99.90
20246;DHT22;10281;54.406;18.556;2023-07-30T03:20:04;16.60;99.90
20246;DHT22;10281;54.406;18.556;2023-07-30T03:22:31;16.60;99.90
20246;DHT22;10281;54.406;18.556;2023-07-30T03:24:57;16.60;99.90
20246;DHT22;10281;54.406;18.556;2023-07-30T03:27:24;16.60;99.90
20246;DHT22;10281;54.406;18.556;2023-07-30T03:29:50;16.60;99.90
20246;DHT22;10281;54.406;18.556;2023-07-30T03:32:17;16.60;99.90
20246;DHT22;10281;54.406;18.556;2023-07-30T03:34:44;16.60;99.90
20246;DHT22;10281;54.406;18.556;2023-07-30T03:37:10;16.60;99.90
20246;DHT22;10281;54.406;18.556;2023-07-30T03:39:37;16.60;99.90
20246;DHT22;10281;54.406;18.556;2023-07-30T03:42:04;16.60;99.90
20246;DHT22;10281;54.406;18.556;2023-07-30T03:44:31;16.60;99.90
20246;DHT22;10281;54.406;18.556;2023-07-30T03:46:57;16.60;99.90
20246;DHT22;10281;54.406;18.556;2023-07-30T03:49:24;16.60;99.90
20246;DHT22;10281;54.406;18.556;2023-07-30T03:51:51;16.60;99.90
20246;DHT22;10281;54.406;18.556;2023-07-30T03:54:18;16.60;99.90
20246;DHT22;10281;54.406;18.556;2023-07-30T03:56:44;16.60;99.90
20246;DHT22;10281;54.406;18.556;2023-07-30T03:59:11;16.70;99.90
20246;DHT22;10281;54.406;18.556;2023-07-30T04:01:38;16.70;99.90
20246;DHT22;10281;54.406;18.556;2023-07-30T04:04:04;16.70;99.90
20246;DHT22;10281;54.406;18.556;2023-07-30T04:06:31;16.80;99.90
20246;DHT22;10281;54.406;18.556;2023-07-30T04:08:57;16.80;99.90
20246;DHT22;10281;54.406;18.556;2023-07-30T04:11:24;16.90;99.90
20246;DHT22;10281;54.406;18.556;2023-07-30T04:13:51;16.90;99.90
20246;DHT22;10281;54.406;18.556;2023-07-30T04:16:17;16.90;99.90
20246;DHT22;10281;54.406;18.556;2023-07-30T04:18:44;17.00;99.90
20246;DHT22;10281;54.406;18.556;2023-07-30T04:21:10;17.00;99.90
20246;DHT22;10281;54.406;18.556;2023-07-30T04:23:37;17.00;99.90
20246;DHT22;10281;54.406;18.556;2023-07-30T04:26:04;17.10;99.90
20246;DHT22;10281;54.406;18.556;2023-07-30T04:28:30;17.20;99.90
20246;DHT22;10281;54.406;18.556;2023-07-30T04:30:57;17.20;99.90
20246;DHT22;10281;54.406;18.556;2023-07-30T04:33:24;17.30;99.90
20246;DHT22;10281;54.406;18.556;2023-07-30T04:35:52;17.40;99.90
20246;DHT22;10281;54.406;18.556;2023-07-30T04:38:19;17.40;99.90
20246;DHT22;10281;54.406;18.556;2023-07-30T04:40:45;17.50;99.90
20246;DHT22;10281;54.406;18.556;2023-07-30T04:43:12;17.50;99.90
20246;DHT22;10281;54.406;18.556;2023-07-30T04:45:39;17.60;99.90
20246;DHT22;10281;54.406;18.556;2023-07-30T04:48:05;17.60;99.90
20246;DHT22;10281;54.406;18.556;2023-07-30T04:50:32;17.70;99.90
20246;DHT22;10281;54.406;18.556;2023-07-30T04:52:59;17.70;99.90
20246;DHT22;10281;54.406;18.556;2023-07-30T04:55:25;17.80;99.90
20246;DHT22;10281;54.406;18.556;2023-07-30T04:57:52;17.90;99.90
20246;DHT22;10281;54.406;18.556;2023-07-30T05:00:24;17.90;99.90
20246;DHT22;10281;54.406;18.556;2023-07-30T05:02:51;18.00;99.90
20246;DHT22;10281;54.406;18.556;2023-07-30T05:05:18;18.10;99.90
20246;DHT22;10281;54.406;18.556;2023-07-30T05:07:44;18.10;99.90
20246;DHT22;10281;54.406;18.556;2023-07-30T05:10:11;18.20;99.90
20246;DHT22;10281;54.406;18.556;2023-07-30T05:12:38;18.30;99.90
20246;DHT22;10281;54.406;18.556;2023-07-30T05:15:05;18.30;99.90
20246;DHT22;10281;54.406;18.556;2023-07-30T05:17:32;18.50;99.90
20246;DHT22;10281;54.406;18.556;2023-07-30T05:19:58;18.50;99.90
20246;DHT22;10281;54.406;18.556;2023-07-30T05:22:25;18.60;99.90
20246;DHT22;10281;54.406;18.556;2023-07-30T05:24:51;18.60;99.90
20246;DHT22;10281;54.406;18.556;2023-07-30T05:27:18;18.70;99.90
20246;DHT22;10281;54.406;18.556;2023-07-30T05:29:45;18.70;99.90
20246;DHT22;10281;54.406;18.556;2023-07-30T05:32:11;18.70;99.90
20246;DHT22;10281;54.406;18.556;2023-07-30T05:34:38;18.80;99.90
20246;DHT22;10281;54.406;18.556;2023-07-30T05:37:05;18.80;99.90
20246;DHT22;10281;54.406;18.556;2023-07-30T05:39:32;18.90;99.90
20246;DHT22;10281;54.406;18.556;2023-07-30T05:41:58;18.90;99.90
20246;DHT22;10281;54.406;18.556;2023-07-30T05:44:25;19.00;99.90
20246;DHT22;10281;54.406;18.556;2023-07-30T05:46:51;19.00;99.90
20246;DHT22;10281;54.406;18.556;2023-07-30T05:49:19;19.10;99.90
20246;DHT22;10281;54.406;18.556;2023-07-30T05:51:45;19.20;99.90
20246;DHT22;10281;54.406;18.556;2023-07-30T05:54:13;19.20;99.90
20246;DHT22;10281;54.406;18.556;2023-07-30T05:56:39;19.20;99.90
20246;DHT22;10281;54.406;18.556;2023-07-30T05:59:06;19.20;99.90
20246;DHT22;10281;54.406;18.556;2023-07-30T06:01:33;19.20;99.90
20246;DHT22;10281;54.406;18.556;2023-07-30T06:03:59;19.20;99.90
20246;DHT22;10281;54.406;18.556;2023-07-30T06:06:26;19.20;99.90
20246;DHT22;10281;54.406;18.556;2023-07-30T06:08:54;19.20;99.90
20246;DHT22;10281;54.406;18.556;2023-07-30T06:11:21;19.30;99.90
20246;DHT22;10281;54.406;18.556;2023-07-30T06:13:47;19.40;99.90
20246;DHT22;10281;54.406;18.556;2023-07-30T06:16:14;19.40;99.90
20246;DHT22;10281;54.406;18.556;2023-07-30T06:18:41;19.40;99.90
20246;DHT22;10281;54.406;18.556;2023-07-30T06:21:08;19.50;99.90
20246;DHT22;10281;54.406;18.556;2023-07-30T06:23:34;19.50;99.90
20246;DHT22;10281;54.406;18.556;2023-07-30T06:26:01;19.50;99.90
20246;DHT22;10281;54.406;18.556;2023-07-30T06:28:27;19.60;99.90
20246;DHT22;10281;54.406;18.556;2023-07-30T06:30:54;19.70;99.90
20246;DHT22;10281;54.406;18.556;2023-07-30T06:33:21;19.80;99.90
20246;DHT22;10281;54.406;18.556;2023-07-30T06:35:47;20.00;99.90
20246;DHT22;10281;54.406;18.556;2023-07-30T06:38:14;20.00;99.90
20246;DHT22;10281;54.406;18.556;2023-07-30T06:40:41;20.20;99.90
20246;DHT22;10281;54.406;18.556;2023-07-30T06:43:08;20.20;99.90
20246;DHT22;10281;54.406;18.556;2023-07-30T06:45:34;20.20;99.90
20246;DHT22;10281;54.406;18.556;2023-07-30T06:48:01;20.30;99.90
20246;DHT22;10281;54.406;18.556;2023-07-30T06:50:27;20.30;99.90
20246;DHT22;10281;54.406;18.556;2023-07-30T06:52:54;20.30;99.90
20246;DHT22;10281;54.406;18.556;2023-07-30T06:55:21;20.30;99.90
20246;DHT22;10281;54.406;18.556;2023-07-30T06:57:47;20.40;99.90
20246;DHT22;10281;54.406;18.556;2023-07-30T07:00:14;20.40;99.90
20246;DHT22;10281;54.406;18.556;2023-07-30T07:02:43;20.50;99.90
20246;DHT22;10281;54.406;18.556;2023-07-30T07:05:09;20.50;99.90
20246;DHT22;10281;54.406;18.556;2023-07-30T07:07:36;20.50;99.90
20246;DHT22;10281;54.406;18.556;2023-07-30T07:10:03;20.60;99.90
20246;DHT22;10281;54.406;18.556;2023-07-30T07:12:30;20.60;99.90
20246;DHT22;10281;54.406;18.556;2023-07-30T07:14:56;20.60;99.90
20246;DHT22;10281;54.406;18.556;2023-07-30T07:17:24;20.70;99.90
20246;DHT22;10281;54.406;18.556;2023-07-30T07:19:51;20.80;99.90
20246;DHT22;10281;54.406;18.556;2023-07-30T07:22:17;20.80;99.90
20246;DHT22;10281;54.406;18.556;2023-07-30T07:24:44;20.80;99.90
20246;DHT22;10281;54.406;18.556;2023-07-30T07:27:11;20.90;99.90
20246;DHT22;10281;54.406;18.556;2023-07-30T07:29:38;20.90;99.90
20246;DHT22;10281;54.406;18.556;2023-07-30T07:32:06;21.00;99.90
20246;DHT22;10281;54.406;18.556;2023-07-30T07:34:32;21.00;99.90
20246;DHT22;10281;54.406;18.556;2023-07-30T07:36:59;21.10;99.90
20246;DHT22;10281;54.406;18.556;2023-07-30T07:39:26;21.20;99.90
20246;DHT22;10281;54.406;18.556;2023-07-30T07:41:52;21.30;99.90
20246;DHT22;10281;54.406;18.556;2023-07-30T07:44:19;21.30;99.90
20246;DHT22;10281;54.406;18.556;2023-07-30T07:46:46;21.30;99.90
20246;DHT22;10281;54.406;18.556;2023-07-30T07:49:12;21.30;99.90
20246;DHT22;10281;54.406;18.556;2023-07-30T07:51:39;21.30;99.90
20246;DHT22;10281;54.406;18.556;2023-07-30T07:54:06;21.40;99.90
20246;DHT22;10281;54.406;18.556;2023-07-30T07:56:32;21.40;99.90
20246;DHT22;10281;54.406;18.556;2023-07-30T07:58:59;21.50;99.90
20246;DHT22;10281;54.406;18.556;2023-07-30T08:01:26;21.50;99.90
20246;DHT22;10281;54.406;18.556;2023-07-30T08:03:59;21.60;99.90
20246;DHT22;10281;54.406;18.556;2023-07-30T08:06:26;21.70;99.90
20246;DHT22;10281;54.406;18.556;2023-07-30T08:08:52;21.70;99.90
20246;DHT22;10281;54.406;18.556;2023-07-30T08:11:19;21.70;99.90
20246;DHT22;10281;54.406;18.556;2023-07-30T08:13:46;21.70;99.90
20246;DHT22;10281;54.406;18.556;2023-07-30T08:16:12;21.70;99.90
20246;DHT22;10281;54.406;18.556;2023-07-30T08:18:39;21.80;99.90
20246;DHT22;10281;54.406;18.556;2023-07-30T08:21:06;21.80;99.90
20246;DHT22;10281;54.406;18.556;2023-07-30T08:23:32;21.90;99.90
20246;DHT22;10281;54.406;18.556;2023-07-30T08:25:59;21.80;99.90
20246;DHT22;10281;54.406;18.556;2023-07-30T08:28:26;21.80;99.90
20246;DHT22;10281;54.406;18.556;2023-07-30T08:30:52;21.70;99.90
20246;DHT22;10281;54.406;18.556;2023-07-30T08:33:19;21.80;99.90
20246;DHT22;10281;54.406;18.556;2023-07-30T08:35:46;21.90;99.90
20246;DHT22;10281;54.406;18.556;2023-07-30T08:38:12;22.00;99.90
20246;DHT22;10281;54.406;18.556;2023-07-30T08:40:39;22.00;99.90
20246;DHT22;10281;54.406;18.556;2023-07-30T08:43:05;22.10;99.90
20246;DHT22;10281;54.406;18.556;2023-07-30T08:45:32;22.20;99.90
20246;DHT22;10281;54.406;18.556;2023-07-30T08:47:59;22.10;99.90
20246;DHT22;10281;54.406;18.556;2023-07-30T08:50:26;22.10;99.90
20246;DHT22;10281;54.406;18.556;2023-07-30T08:52:55;22.00;99.90
20246;DHT22;10281;54.406;18.556;2023-07-30T08:55:22;22.00;99.90
20246;DHT22;10281;54.406;18.556;2023-07-30T08:57:49;22.10;99.90
20246;DHT22;10281;54.406;18.556;2023-07-30T09:00:18;22.20;99.90
20246;DHT22;10281;54.406;18.556;2023-07-30T09:02:51;22.30;99.90
20246;DHT22;10281;54.406;18.556;2023-07-30T09:05:20;22.40;99.90
20246;DHT22;10281;54.406;18.556;2023-07-30T09:07:49;22.60;99.90
20246;DHT22;10281;54.406;18.556;2023-07-30T09:10:15;22.70;99.90
20246;DHT22;10281;54.406;18.556;2023-07-30T09:12:42;22.80;99.90
20246;DHT22;10281;54.406;18.556;2023-07-30T09:15:09;22.90;99.90
20246;DHT22;10281;54.406;18.556;2023-07-30T09:17:36;22.90;99.90
20246;DHT22;10281;54.406;18.556;2023-07-30T09:20:04;22.90;99.90
20246;DHT22;10281;54.406;18.556;2023-07-30T09:22:33;22.90;99.90
20246;DHT22;10281;54.406;18.556;2023-07-30T09:25:03;22.90;99.90
20246;DHT22;10281;54.406;18.556;2023-07-30T09:27:31;23.00;99.90
20246;DHT22;10281;54.406;18.556;2023-07-30T09:30:00;23.00;99.90
20246;DHT22;10281;54.406;18.556;2023-07-30T09:32:28;23.10;99.90
20246;DHT22;10281;54.406;18.556;2023-07-30T09:34:55;23.10;99.90
20246;DHT22;10281;54.406;18.556;2023-07-30T09:37:21;23.20;99.90
20246;DHT22;10281;54.406;18.556;2023-07-30T09:39:49;23.20;99.90
20246;DHT22;10281;54.406;18.556;2023-07-30T09:42:16;23.30;99.90
20246;DHT22;10281;54.406;18.556;2023-07-30T09:44:46;23.30;99.90
20246;DHT22;10281;54.406;18.556;2023-07-30T09:47:13;23.30;99.90
20246;DHT22;10281;54.406;18.556;2023-07-30T09:49:40;23.50;99.90
20246;DHT22;10281;54.406;18.556;2023-07-30T09:52:06;23.50;99.90
20246;DHT22;10281;54.406;18.556;2023-07-30T09:54:33;23.60;99.90
20246;DHT22;10281;54.406;18.556;2023-07-30T09:57:00;23.70;99.90
20246;DHT22;10281;54.406;18.556;2023-07-30T09:59:27;23.70;99.90
20246;DHT22;10281;54.406;18.556;2023-07-30T10:01:54;23.70;99.90
20246;DHT22;10281;54.406;18.556;2023-07-30T10:04:22;23.70;99.90
20246;DHT22;10281;54.406;18.556;2023-07-30T10:07:01;23.70;99.90
20246;DHT22;10281;54.406;18.556;2023-07-30T10:09:33;23.80;99.90
20246;DHT22;10281;54.406;18.556;2023-07-30T10:12:01;23.70;99.90
20246;DHT22;10281;54.406;18.556;2023-07-30T10:14:29;23.80;99.90
20246;DHT22;10281;54.406;18.556;2023-07-30T10:16:59;23.70;99.90
20246;DHT22;10281;54.406;18.556;2023-07-30T10:19:27;23.60;99.90
20246;DHT22;10281;54.406;18.556;2023-07-30T10:21:58;23.60;99.90
20246;DHT22;10281;54.406;18.556;2023-07-30T10:24:26;23.60;99.90
20246;DHT22;10281;54.406;18.556;2023-07-30T10:26:53;23.60;99.90
20246;DHT22;10281;54.406;18.556;2023-07-30T10:29:22;23.70;99.90
20246;DHT22;10281;54.406;18.556;2023-07-30T10:31:53;23.80;99.90
20246;DHT22;10281;54.406;18.556;2023-07-30T10:34:22;23.90;99.90
20246;DHT22;10281;54.406;18.556;2023-07-30T10:36:50;24.00;99.90
20246;DHT22;10281;54.406;18.556;2023-07-30T10:39:19;24.20;99.90
20246;DHT22;10281;54.406;18.556;2023-07-30T10:41:49;24.30;99.90
20246;DHT22;10281;54.406;18.556;2023-07-30T10:44:25;24.40;99.90
20246;DHT22;10281;54.406;18.556;2023-07-30T10:46:54;24.50;99.90
20246;DHT22;10281;54.406;18.556;2023-07-30T10:49:21;24.40;99.90
20246;DHT22;10281;54.406;18.556;2023-07-30T10:51:49;24.20;99.90
20246;DHT22;10281;54.406;18.556;2023-07-30T10:54:17;23.80;99.90
20246;DHT22;10281;54.406;18.556;2023-07-30T10:56:43;23.40;99.90
20246;DHT22;10281;54.406;18.556;2023-07-30T10:59:11;23.10;99.90
20246;DHT22;10281;54.406;18.556;2023-07-30T11:01:41;23.10;99.90
20246;DHT22;10281;54.406;18.556;2023-07-30T11:04:16;22.90;99.90
20246;DHT22;10281;54.406;18.556;2023-07-30T11:06:47;23.10;99.90
20246;DHT22;10281;54.406;18.556;2023-07-30T11:09:21;22.90;99.90
20246;DHT22;10281;54.406;18.556;2023-07-30T11:11:48;22.80;99.90
20246;DHT22;10281;54.406;18.556;2023-07-30T11:14:18;22.70;99.90
20246;DHT22;10281;54.406;18.556;2023-07-30T11:16:50;22.80;99.90
20246;DHT22;10281;54.406;18.556;2023-07-30T11:19:17;22.80;99.90
20246;DHT22;10281;54.406;18.556;2023-07-30T11:21:45;22.90;99.90
20246;DHT22;10281;54.406;18.556;2023-07-30T11:24:12;23.10;99.90
20246;DHT22;10281;54.406;18.556;2023-07-30T11:26:39;23.30;99.90
20246;DHT22;10281;54.406;18.556;2023-07-30T11:29:14;23.40;99.90
20246;DHT22;10281;54.406;18.556;2023-07-30T11:31:43;23.40;99.90
20246;DHT22;10281;54.406;18.556;2023-07-30T11:34:10;23.10;99.90
20246;DHT22;10281;54.406;18.556;2023-07-30T11:36:37;23.10;99.90
20246;DHT22;10281;54.406;18.556;2023-07-30T11:39:05;23.00;99.90
20246;DHT22;10281;54.406;18.556;2023-07-30T11:41:32;22.80;99.90
20246;DHT22;10281;54.406;18.556;2023-07-30T11:43:59;22.60;99.90
20246;DHT22;10281;54.406;18.556;2023-07-30T11:46:26;22.50;99.90
20246;DHT22;10281;54.406;18.556;2023-07-30T11:48:54;22.50;99.90
20246;DHT22;10281;54.406;18.556;2023-07-30T11:51:26;22.40;99.90
20246;DHT22;10281;54.406;18.556;2023-07-30T11:53:55;22.40;99.90
20246;DHT22;10281;54.406;18.556;2023-07-30T11:56:26;22.40;99.90
20246;DHT22;10281;54.406;18.556;2023-07-30T11:58:56;22.40;99.90
20246;DHT22;10281;54.406;18.556;2023-07-30T12:01:25;22.40;99.90
20246;DHT22;10281;54.406;18.556;2023-07-30T12:03:56;22.50;99.90
20246;DHT22;10281;54.406;18.556;2023-07-30T12:06:23;22.70;99.90
20246;DHT22;10281;54.406;18.556;2023-07-30T12:08:51;22.80;99.90
20246;DHT22;10281;54.406;18.556;2023-07-30T12:11:19;22.80;99.90
20246;DHT22;10281;54.406;18.556;2023-07-30T12:13:46;22.80;99.90
20246;DHT22;10281;54.406;18.556;2023-07-30T12:16:14;22.70;99.90
20246;DHT22;10281;54.406;18.556;2023-07-30T12:18:40;22.70;99.90
20246;DHT22;10281;54.406;18.556;2023-07-30T12:21:08;22.80;99.90
20246;DHT22;10281;54.406;18.556;2023-07-30T12:23:37;23.00;99.90
20246;DHT22;10281;54.406;18.556;2023-07-30T12:26:04;23.00;99.90
20246;DHT22;10281;54.406;18.556;2023-07-30T12:28:33;23.00;99.90
20246;DHT22;10281;54.406;18.556;2023-07-30T12:31:00;23.00;99.90
20246;DHT22;10281;54.406;18.556;2023-07-30T12:33:27;23.20;99.90
20246;DHT22;10281;54.406;18.556;2023-07-30T12:35:54;23.30;99.90
20246;DHT22;10281;54.406;18.556;2023-07-30T12:38:20;23.40;99.90
20246;DHT22;10281;54.406;18.556;2023-07-30T12:40:47;23.60;99.90
20246;DHT22;10281;54.406;18.556;2023-07-30T12:43:13;23.60;99.90
20246;DHT22;10281;54.406;18.556;2023-07-30T12:45:40;23.70;99.90
20246;DHT22;10281;54.406;18.556;2023-07-30T12:48:07;23.70;99.90
20246;DHT22;10281;54.406;18.556;2023-07-30T12:50:33;23.80;99.90
20246;DHT22;10281;54.406;18.556;2023-07-30T12:53:00;23.80;99.90
20246;DHT22;10281;54.406;18.556;2023-07-30T12:55:27;23.90;99.90
20246;DHT22;10281;54.406;18.556;2023-07-30T12:57:53;23.80;99.90
20246;DHT22;10281;54.406;18.556;2023-07-30T13:00:20;23.80;99.90
20246;DHT22;10281;54.406;18.556;2023-07-30T13:02:49;23.90;99.90
20246;DHT22;10281;54.406;18.556;2023-07-30T13:05:18;24.00;99.90
20246;DHT22;10281;54.406;18.556;2023-07-30T13:07:45;24.10;99.90
20246;DHT22;10281;54.406;18.556;2023-07-30T13:10:11;24.00;99.90
20246;DHT22;10281;54.406;18.556;2023-07-30T13:12:38;24.00;99.90
20246;DHT22;10281;54.406;18.556;2023-07-30T13:15:05;23.90;99.90
20246;DHT22;10281;54.406;18.556;2023-07-30T13:17:32;23.90;99.90
20246;DHT22;10281;54.406;18.556;2023-07-30T13:19:58;24.00;99.90
20246;DHT22;10281;54.406;18.556;2023-07-30T13:22:25;24.10;99.90
20246;DHT22;10281;54.406;18.556;2023-07-30T13:24:52;24.10;99.90
20246;DHT22;10281;54.406;18.556;2023-07-30T13:27:19;24.10;99.90
20246;DHT22;10281;54.406;18.556;2023-07-30T13:29:45;24.10;99.90
20246;DHT22;10281;54.406;18.556;2023-07-30T13:32:14;23.90;99.90
20246;DHT22;10281;54.406;18.556;2023-07-30T13:34:40;23.80;99.90
20246;DHT22;10281;54.406;18.556;2023-07-30T13:37:07;23.80;99.90
20246;DHT22;10281;54.406;18.556;2023-07-30T13:39:34;23.60;99.90
20246;DHT22;10281;54.406;18.556;2023-07-30T13:42:01;23.50;99.90
20246;DHT22;10281;54.406;18.556;2023-07-30T13:44:27;23.30;99.90
20246;DHT22;10281;54.406;18.556;2023-07-30T13:46:54;23.10;99.90
20246;DHT22;10281;54.406;18.556;2023-07-30T13:49:21;23.00;99.90
20246;DHT22;10281;54.406;18.556;2023-07-30T13:51:47;22.90;99.90
20246;DHT22;10281;54.406;18.556;2023-07-30T13:54:14;22.90;99.90
20246;DHT22;10281;54.406;18.556;2023-07-30T13:56:41;22.80;99.90
20246;DHT22;10281;54.406;18.556;2023-07-30T13:59:07;22.90;99.90
20246;DHT22;10281;54.406;18.556;2023-07-30T14:01:34;23.00;99.90
20246;DHT22;10281;54.406;18.556;2023-07-30T14:04:00;22.90;99.90
20246;DHT22;10281;54.406;18.556;2023-07-30T14:06:27;22.70;99.90
20246;DHT22;10281;54.406;18.556;2023-07-30T14:08:55;22.60;99.90
20246;DHT22;10281;54.406;18.556;2023-07-30T14:11:21;22.50;99.90
20246;DHT22;10281;54.406;18.556;2023-07-30T14:13:48;22.50;99.90
20246;DHT22;10281;54.406;18.556;2023-07-30T14:16:14;22.50;99.90
20246;DHT22;10281;54.406;18.556;2023-07-30T14:18:41;22.40;99.90
20246;DHT22;10281;54.406;18.556;2023-07-30T14:21:08;22.40;99.90
20246;DHT22;10281;54.406;18.556;2023-07-30T14:23:35;22.50;99.90
20246;DHT22;10281;54.406;18.556;2023-07-30T14:26:01;22.50;99.90
20246;DHT22;10281;54.406;18.556;2023-07-30T14:28:28;22.40;99.90
20246;DHT22;10281;54.406;18.556;2023-07-30T14:30:55;22.40;99.90
20246;DHT22;10281;54.406;18.556;2023-07-30T14:33:21;22.30;99.90
20246;DHT22;10281;54.406;18.556;2023-07-30T14:35:48;22.30;99.90
20246;DHT22;10281;54.406;18.556;2023-07-30T14:38:15;22.20;99.90
20246;DHT22;10281;54.406;18.556;2023-07-30T14:40:43;22.10;99.90
20246;DHT22;10281;54.406;18.556;2023-07-30T14:43:09;22.10;99.90
20246;DHT22;10281;54.406;18.556;2023-07-30T14:45:36;22.00;99.90
20246;DHT22;10281;54.406;18.556;2023-07-30T14:48:03;22.00;99.90
20246;DHT22;10281;54.406;18.556;2023-07-30T14:50:30;21.90;99.90
20246;DHT22;10281;54.406;18.556;2023-07-30T14:52:56;21.90;99.90
20246;DHT22;10281;54.406;18.556;2023-07-30T14:55:23;21.80;99.90
20246;DHT22;10281;54.406;18.556;2023-07-30T14:57:50;21.90;99.90
20246;DHT22;10281;54.406;18.556;2023-07-30T15:00:17;21.90;99.90
20246;DHT22;10281;54.406;18.556;2023-07-30T15:02:43;21.90;99.90
20246;DHT22;10281;54.406;18.556;2023-07-30T15:05:10;21.90;99.90
20246;DHT22;10281;54.406;18.556;2023-07-30T15:07:37;21.90;99.90
20246;DHT22;10281;54.406;18.556;2023-07-30T15:10:04;21.90;99.90
20246;DHT22;10281;54.406;18.556;2023-07-30T15:12:30;21.80;99.90
20246;DHT22;10281;54.406;18.556;2023-07-30T15:14:57;21.70;99.90